Pagrindinis puslapis
METAR-TAF:

METAR-TAF

Oro uostai :

Atka, Aliaska, Jungtinės Amerikos Valstijos

platuma: 52-13-13N, ilguma: 174-12-23W, Aukštis: 17 m

Dabartinis oras

Ataskaita buvo paskelbta 12 minutes, ne 04:10 UTC
Vėjas 7 kt iš Vakarų
Temperatūra -2°C
Drėgmė 93%
Slėgis 1006 hPa
Su prošvaistėmis ne aukštis 300 ft
Su prošvaistėmis ne aukštis 1300 ft
Apsiniaukę ne aukštis 8500 ft
sniegas, įšaldymas rūko

METAR: PAAK 200410Z AUTO 27007KT M1/4SM +SN FZFG BKN003 BKN013 OVC085 M02/M03 A2970 RMK AO2 P0000 FZRANO

Laikas: 19:22 (04:22 UTC)


TAF: trūkstamas

Orai ataskaitas ir orų prognozės (METAR, TAF).

turimą stotys yra geltonos ir raudonos taškus žemėlapyje.

Perkelti pele per norėdami pamatyti stoties vardą.

Tada spustelėkite, norėdami matyti oro stebėjimo ir prognozės.

Norėdami pakeisti žemėlapį: spustelėkite ant žalios mygtukų su juodo kryžiaus žemyn,; žalią mygtuką su brūkšneliu, jei norite nutolinti; arba žalių rodyklių gretimoms žemėlapius.


METAR-TAF: